Time;durP1;ratioP1;P1;durP2;ratioP2;P2;SDS_P1;SDS_P2;PMS_P1;PMS_P2;Temp;Humidity;BMP_temperature;BMP_pressure;BME280_temperature;BME280_humidity;BME280_pressure;Samples;Min_cycle;Max_cycle;Signal;HPM_P1;HPM_P2
2023/01/30 00:01:47;;;;;;;18.38;5.57;;;;;;;;;;5040583;28;20037;-70
2023/01/30 00:04:13;;;;;;;17.83;5.38;;;;;;;;;;5039626;28;20049;-71
2023/01/30 00:06:40;;;;;;;23.42;5.32;;;;;;;;;;5035368;28;20488;-71
2023/01/30 00:09:07;;;;;;;17.15;4.80;;;;;;;;;;5055617;28;20045;-71
2023/01/30 00:11:33;;;;;;;21.42;5.35;;;;;;;;;;5037232;28;20429;-71
2023/01/30 00:14:00;;;;;;;27.92;6.55;;;;;;;;;;5039248;28;20131;-71
2023/01/30 00:16:26;;;;;;;22.05;5.93;;;;;;;;;;5035521;28;20049;-71
2023/01/30 00:18:52;;;;;;;22.90;5.70;;;;;;;;;;5037610;28;20052;-71
2023/01/30 00:21:19;;;;;;;25.00;7.15;;;;;;;;;;5041462;28;20041;-71
2023/01/30 00:23:45;;;;;;;22.60;5.65;;;;;;;;;;5042348;28;20049;-72
2023/01/30 00:26:11;;;;;;;20.38;7.55;;;;;;;;;;5042963;28;20452;-72
2023/01/30 00:28:38;;;;;;;21.08;7.72;;;;;;;;;;5043340;28;20148;-71
2023/01/30 00:31:05;;;;;;;25.42;6.70;;;;;;;;;;5042775;28;20049;-72
2023/01/30 00:33:31;;;;;;;18.08;6.53;;;;;;;;;;5044683;28;20072;-71
2023/01/30 00:35:57;;;;;;;22.65;6.03;;;;;;;;;;5037200;28;20053;-69
2023/01/30 00:38:24;;;;;;;36.33;8.38;;;;;;;;;;5044382;28;20521;-70
2023/01/30 00:40:50;;;;;;;30.00;7.15;;;;;;;;;;5043195;28;20038;-70
2023/01/30 00:48:48;;;;;;;28.08;8.40;;;;;;;;;;5046116;28;20045;-70
2023/01/30 00:51:14;;;;;;;23.05;7.88;;;;;;;;;;5044986;28;20247;-70
2023/01/30 00:53:41;;;;;;;30.10;7.65;;;;;;;;;;5039364;28;20044;-69
2023/01/30 00:56:07;;;;;;;35.58;8.68;;;;;;;;;;5036199;28;20115;-69
2023/01/30 00:58:33;;;;;;;29.92;8.95;;;;;;;;;;5036266;28;20037;-69
2023/01/30 01:00:59;;;;;;;25.60;7.28;;;;;;;;;;5037977;28;20174;-70
2023/01/30 01:03:25;;;;;;;33.72;9.65;;;;;;;;;;5036728;28;20045;-70
2023/01/30 01:05:51;;;;;;;35.28;9.15;;;;;;;;;;5034599;28;20101;-70
2023/01/30 01:08:18;;;;;;;35.17;9.50;;;;;;;;;;5038441;28;20045;-70
2023/01/30 01:10:45;;;;;;;33.50;9.93;;;;;;;;;;5039274;28;20078;-70
2023/01/30 01:13:11;;;;;;;33.15;10.38;;;;;;;;;;5034885;28;20045;-70
2023/01/30 01:15:37;;;;;;;37.92;10.23;;;;;;;;;;5045355;28;20057;-70
2023/01/30 01:18:03;;;;;;;32.65;10.52;;;;;;;;;;5042861;28;20143;-70
2023/01/30 01:20:30;;;;;;;29.80;10.30;;;;;;;;;;5045271;28;20084;-70
2023/01/30 01:22:56;;;;;;;30.70;9.48;;;;;;;;;;5043732;28;20163;-70
2023/01/30 01:25:23;;;;;;;30.20;10.40;;;;;;;;;;5039686;28;20041;-70
2023/01/30 01:27:50;;;;;;;35.70;9.70;;;;;;;;;;5039830;28;20037;-70
2023/01/30 01:30:16;;;;;;;28.33;9.07;;;;;;;;;;5042069;28;20045;-70
2023/01/30 01:32:42;;;;;;;50.83;10.38;;;;;;;;;;5036480;28;20611;-70
2023/01/30 01:35:09;;;;;;;28.80;9.73;;;;;;;;;;5039120;28;20056;-70
2023/01/30 01:37:35;;;;;;;40.42;10.30;;;;;;;;;;5034902;28;20048;-71
2023/01/30 01:42:46;;;;;;;44.00;9.00;;;;;;;;;;5035108;28;20048;-70
2023/01/30 01:45:16;;;;;;;32.72;9.15;;;;;;;;;;5035187;28;20085;-70
2023/01/30 01:47:47;;;;;;;37.33;8.60;;;;;;;;;;5035209;28;20060;-70
2023/01/30 01:50:16;;;;;;;25.48;8.50;;;;;;;;;;5035322;28;20037;-71
2023/01/30 01:52:42;;;;;;;41.03;8.63;;;;;;;;;;5037884;28;20055;-70
2023/01/30 01:55:09;;;;;;;30.30;7.80;;;;;;;;;;5024628;28;20047;-70
2023/01/30 01:57:39;;;;;;;34.70;7.35;;;;;;;;;;5040714;28;20111;-70
2023/01/30 02:00:10;;;;;;;44.00;8.15;;;;;;;;;;5043051;28;20476;-70
2023/01/30 02:02:36;;;;;;;38.88;8.38;;;;;;;;;;5034566;28;20401;-70
2023/01/30 02:05:05;;;;;;;32.92;7.45;;;;;;;;;;5036914;28;20076;-71
2023/01/30 02:07:35;;;;;;;32.70;8.27;;;;;;;;;;5034267;28;20123;-70
2023/01/30 02:10:02;;;;;;;39.70;8.48;;;;;;;;;;5036374;28;20043;-70
2023/01/30 02:12:28;;;;;;;28.75;8.13;;;;;;;;;;5015478;28;20052;-70
2023/01/30 02:14:55;;;;;;;42.05;7.93;;;;;;;;;;5041150;28;20492;-70
2023/01/30 02:17:23;;;;;;;34.35;6.40;;;;;;;;;;5019416;28;20037;-70
2023/01/30 02:19:56;;;;;;;42.83;7.10;;;;;;;;;;5016007;28;20133;-70
2023/01/30 02:22:25;;;;;;;33.95;6.32;;;;;;;;;;5044150;28;20128;-70
2023/01/30 02:24:51;;;;;;;42.50;7.60;;;;;;;;;;5042579;28;20377;-70
2023/01/30 02:27:18;;;;;;;28.20;7.20;;;;;;;;;;5044869;28;20049;-71
2023/01/30 02:29:53;;;;;;;32.83;6.63;;;;;;;;;;5046077;28;20045;-70
2023/01/30 02:32:29;;;;;;;34.42;6.10;;;;;;;;;;5049552;28;20052;-70
2023/01/30 02:35:01;;;;;;;44.33;8.43;;;;;;;;;;5048768;28;20052;-70
2023/01/30 02:37:36;;;;;;;40.40;7.63;;;;;;;;;;5049447;28;20065;-70
2023/01/30 02:40:02;;;;;;;30.92;6.15;;;;;;;;;;5047542;28;20053;-70
2023/01/30 02:42:34;;;;;;;30.33;6.05;;;;;;;;;;5051931;28;20040;-70
2023/01/30 02:45:05;;;;;;;28.33;6.93;;;;;;;;;;5036861;28;20106;-70
2023/01/30 02:47:34;;;;;;;35.67;6.35;;;;;;;;;;5045014;28;20045;-70
2023/01/30 02:50:06;;;;;;;38.97;6.30;;;;;;;;;;5045276;28;20374;-71
2023/01/30 02:52:33;;;;;;;32.20;7.95;;;;;;;;;;5037460;28;20135;-70
2023/01/30 02:54:59;;;;;;;36.78;6.43;;;;;;;;;;5041019;28;20574;-70
2023/01/30 02:57:26;;;;;;;28.20;6.18;;;;;;;;;;5040024;28;20099;-70
2023/01/30 02:59:57;;;;;;;33.97;6.32;;;;;;;;;;5036445;28;20057;-70
2023/01/30 03:02:23;;;;;;;24.00;5.25;;;;;;;;;;5049271;28;20508;-70
2023/01/30 03:05:02;;;;;;;35.05;7.00;;;;;;;;;;5038975;28;21315;-71
2023/01/30 03:07:42;;;;;;;31.45;6.57;;;;;;;;;;5038379;28;20045;-70
2023/01/30 03:10:22;;;;;;;33.70;6.20;;;;;;;;;;5039800;28;20408;-70
2023/01/30 03:12:52;;;;;;;29.20;6.50;;;;;;;;;;5038970;28;20084;-71
2023/01/30 03:15:25;;;;;;;33.97;5.22;;;;;;;;;;5040639;28;20144;-70
2023/01/30 03:17:51;;;;;;;23.37;5.57;;;;;;;;;;5040482;28;20060;-70
2023/01/30 03:20:19;;;;;;;35.95;6.65;;;;;;;;;;5035400;28;20052;-70
2023/01/30 03:22:45;;;;;;;21.05;5.20;;;;;;;;;;5041397;28;20053;-70
2023/01/30 03:25:15;;;;;;;26.55;6.05;;;;;;;;;;5045055;28;20045;-70
2023/01/30 03:27:41;;;;;;;22.83;5.72;;;;;;;;;;5043136;28;20496;-70
2023/01/30 03:30:08;;;;;;;28.67;6.43;;;;;;;;;;5044457;28;20112;-70
2023/01/30 03:32:34;;;;;;;29.58;6.03;;;;;;;;;;5042814;28;20056;-71
2023/01/30 03:35:00;;;;;;;33.60;5.50;;;;;;;;;;5042758;28;20091;-71
2023/01/30 03:37:26;;;;;;;38.97;5.63;;;;;;;;;;5038969;28;20048;-70
2023/01/30 03:39:53;;;;;;;25.42;6.15;;;;;;;;;;5041290;28;20562;-71
2023/01/30 03:42:19;;;;;;;21.63;4.78;;;;;;;;;;5042943;28;20447;-70
2023/01/30 03:44:45;;;;;;;31.08;6.07;;;;;;;;;;5041499;28;20049;-71
2023/01/30 03:47:11;;;;;;;30.58;5.50;;;;;;;;;;5039869;28;20052;-71
2023/01/30 03:49:37;;;;;;;27.40;5.15;;;;;;;;;;5038827;28;20187;-71
2023/01/30 03:52:03;;;;;;;27.70;5.05;;;;;;;;;;5040245;28;20040;-70
2023/01/30 03:54:29;;;;;;;31.73;5.90;;;;;;;;;;5043379;28;20085;-71
2023/01/30 03:56:56;;;;;;;38.90;7.63;;;;;;;;;;5039960;28;20079;-70
2023/01/30 03:59:22;;;;;;;38.55;6.82;;;;;;;;;;5038255;28;20049;-71
2023/01/30 04:01:48;;;;;;;38.15;6.80;;;;;;;;;;5038634;28;20373;-71
2023/01/30 04:04:14;;;;;;;35.45;5.93;;;;;;;;;;5040574;28;20047;-71
2023/01/30 04:06:40;;;;;;;44.20;9.23;;;;;;;;;;5038409;28;20049;-71
2023/01/30 04:09:06;;;;;;;31.38;6.43;;;;;;;;;;5039305;28;20048;-71
2023/01/30 04:11:33;;;;;;;34.42;6.93;;;;;;;;;;5038340;28;20040;-70
2023/01/30 04:13:59;;;;;;;33.65;5.80;;;;;;;;;;5039346;28;20052;-70
2023/01/30 04:16:26;;;;;;;27.27;4.20;;;;;;;;;;5037704;28;20688;-70
2023/01/30 04:18:52;;;;;;;26.08;4.82;;;;;;;;;;5038995;28;20580;-70
2023/01/30 04:21:19;;;;;;;29.13;4.38;;;;;;;;;;5038371;28;20071;-70
2023/01/30 04:23:45;;;;;;;22.55;4.20;;;;;;;;;;5042319;28;20048;-71
2023/01/30 04:26:12;;;;;;;27.70;5.45;;;;;;;;;;5040272;28;20558;-70
2023/01/30 04:28:39;;;;;;;20.77;4.32;;;;;;;;;;5005378;28;20409;-71
2023/01/30 04:31:05;;;;;;;26.92;4.28;;;;;;;;;;5040866;28;20087;-71
2023/01/30 04:33:34;;;;;;;34.72;5.25;;;;;;;;;;5052530;28;20053;-70
2023/01/30 04:36:01;;;;;;;25.52;6.35;;;;;;;;;;5038665;28;20413;-70
2023/01/30 04:38:29;;;;;;;32.33;6.18;;;;;;;;;;5037786;28;20068;-70
2023/01/30 04:40:56;;;;;;;33.92;5.55;;;;;;;;;;5038421;28;20049;-70
2023/01/30 04:43:22;;;;;;;34.55;5.20;;;;;;;;;;5035566;28;20477;-70
2023/01/30 04:45:49;;;;;;;31.20;5.22;;;;;;;;;;5039120;28;20052;-71
2023/01/30 04:48:15;;;;;;;35.58;5.65;;;;;;;;;;5042953;28;20132;-70
2023/01/30 04:50:42;;;;;;;35.30;4.90;;;;;;;;;;5040641;28;20128;-70
2023/01/30 04:53:09;;;;;;;30.85;5.38;;;;;;;;;;5035443;28;20537;-70
2023/01/30 04:55:36;;;;;;;36.38;6.40;;;;;;;;;;5040142;28;21689;-71
2023/01/30 04:58:02;;;;;;;31.67;5.07;;;;;;;;;;5038124;28;20728;-71
2023/01/30 05:00:28;;;;;;;25.58;6.07;;;;;;;;;;5037373;28;21747;-71
2023/01/30 05:02:54;;;;;;;29.50;5.22;;;;;;;;;;5038555;28;20224;-71
2023/01/30 05:05:22;;;;;;;32.70;6.05;;;;;;;;;;5038535;28;20112;-71
2023/01/30 05:07:48;;;;;;;26.27;4.45;;;;;;;;;;5037014;28;20071;-71
2023/01/30 05:10:14;;;;;;;29.15;4.75;;;;;;;;;;5037087;28;20362;-71
2023/01/30 05:12:40;;;;;;;40.60;5.05;;;;;;;;;;5040787;28;20041;-71
2023/01/30 05:15:07;;;;;;;34.28;5.25;;;;;;;;;;5039158;28;20580;-71
2023/01/30 05:17:33;;;;;;;27.77;4.43;;;;;;;;;;5037328;28;20484;-71
2023/01/30 05:20:00;;;;;;;37.47;6.00;;;;;;;;;;5038513;28;20041;-70
2023/01/30 05:22:26;;;;;;;41.75;7.15;;;;;;;;;;5042305;28;20052;-71
2023/01/30 05:24:52;;;;;;;23.88;4.95;;;;;;;;;;5034863;28;20049;-71
2023/01/30 05:27:18;;;;;;;32.80;6.18;;;;;;;;;;5038601;28;20045;-71
2023/01/30 05:29:44;;;;;;;32.90;5.20;;;;;;;;;;5038057;28;20471;-71
2023/01/30 05:32:13;;;;;;;32.08;4.82;;;;;;;;;;5053242;28;20053;-71
2023/01/30 05:34:39;;;;;;;32.35;5.13;;;;;;;;;;5040386;28;20041;-71
2023/01/30 05:37:05;;;;;;;34.85;5.75;;;;;;;;;;5036693;28;20512;-69
2023/01/30 05:39:31;;;;;;;42.83;5.80;;;;;;;;;;5033141;28;20147;-69
2023/01/30 05:41:58;;;;;;;27.83;5.13;;;;;;;;;;5038299;28;20102;-72
2023/01/30 05:44:24;;;;;;;30.83;5.60;;;;;;;;;;5032449;28;20057;-71
2023/01/30 05:46:50;;;;;;;35.45;5.65;;;;;;;;;;5006725;28;20103;-71
2023/01/30 05:49:16;;;;;;;38.75;6.05;;;;;;;;;;5023722;28;20091;-71
2023/01/30 05:51:42;;;;;;;39.75;5.97;;;;;;;;;;5027689;28;20148;-71
2023/01/30 05:54:08;;;;;;;40.78;6.93;;;;;;;;;;5024075;28;20397;-71
2023/01/30 05:56:35;;;;;;;39.78;5.70;;;;;;;;;;5031137;28;20135;-71
2023/01/30 05:59:01;;;;;;;35.33;5.78;;;;;;;;;;5024307;28;20048;-71
2023/01/30 06:01:28;;;;;;;31.55;5.68;;;;;;;;;;5002929;28;20109;-71
2023/01/30 06:03:55;;;;;;;40.88;6.70;;;;;;;;;;5022240;28;20078;-70
2023/01/30 06:06:22;;;;;;;32.28;6.55;;;;;;;;;;5005155;28;20076;-71
2023/01/30 06:08:52;;;;;;;46.92;6.68;;;;;;;;;;5022406;28;21131;-71
2023/01/30 06:11:18;;;;;;;36.03;5.63;;;;;;;;;;5022626;28;20050;-70
2023/01/30 06:13:44;;;;;;;35.72;6.22;;;;;;;;;;5023039;28;20075;-71
2023/01/30 06:16:12;;;;;;;31.85;5.57;;;;;;;;;;5006457;28;20033;-71
2023/01/30 06:18:38;;;;;;;39.75;4.93;;;;;;;;;;5024846;28;20131;-71
2023/01/30 06:21:04;;;;;;;47.22;6.28;;;;;;;;;;5030787;28;20591;-70
2023/01/30 06:23:31;;;;;;;37.17;5.40;;;;;;;;;;5033478;28;20543;-70
2023/01/30 06:25:57;;;;;;;36.95;6.05;;;;;;;;;;5031571;28;20120;-70
2023/01/30 06:28:24;;;;;;;29.00;6.07;;;;;;;;;;5011196;28;21508;-70
2023/01/30 06:30:50;;;;;;;39.80;6.47;;;;;;;;;;5032575;28;20445;-71
2023/01/30 06:33:16;;;;;;;34.55;6.03;;;;;;;;;;5013524;28;20371;-70
2023/01/30 06:35:43;;;;;;;34.53;7.75;;;;;;;;;;5031950;28;20033;-70
2023/01/30 06:38:12;;;;;;;40.28;5.90;;;;;;;;;;5026976;28;20476;-71
2023/01/30 06:40:38;;;;;;;41.33;7.07;;;;;;;;;;5014394;28;20142;-69
2023/01/30 06:43:04;;;;;;;28.58;5.45;;;;;;;;;;5031289;28;20044;-70
2023/01/30 06:45:30;;;;;;;37.65;5.40;;;;;;;;;;5039178;28;20049;-70
2023/01/30 06:47:56;;;;;;;43.42;6.38;;;;;;;;;;5039587;28;20575;-70
2023/01/30 06:50:24;;;;;;;40.97;6.38;;;;;;;;;;5037228;28;20056;-70
2023/01/30 06:52:51;;;;;;;38.42;5.82;;;;;;;;;;5037801;28;20041;-70
2023/01/30 06:55:19;;;;;;;33.85;5.75;;;;;;;;;;5039446;28;20041;-70
2023/01/30 06:57:45;;;;;;;39.78;6.53;;;;;;;;;;5042282;28;20075;-70
2023/01/30 07:00:13;;;;;;;28.55;5.55;;;;;;;;;;5043484;28;20500;-70
2023/01/30 07:02:40;;;;;;;41.53;8.70;;;;;;;;;;5041035;28;20045;-70
2023/01/30 07:05:07;;;;;;;44.45;7.20;;;;;;;;;;5043227;28;20095;-70
2023/01/30 07:07:33;;;;;;;32.35;6.35;;;;;;;;;;5062628;28;20045;-69
2023/01/30 07:09:59;;;;;;;53.95;7.38;;;;;;;;;;5044528;28;20029;-69
2023/01/30 07:12:26;;;;;;;34.75;6.20;;;;;;;;;;5044566;28;20457;-69
2023/01/30 07:14:53;;;;;;;43.67;6.38;;;;;;;;;;5044482;28;20083;-73
2023/01/30 07:17:19;;;;;;;33.30;6.35;;;;;;;;;;5047201;28;20041;-69
2023/01/30 07:19:46;;;;;;;45.65;7.25;;;;;;;;;;5043034;28;20037;-69
2023/01/30 07:22:12;;;;;;;41.20;6.55;;;;;;;;;;5047185;28;20372;-69
2023/01/30 07:24:39;;;;;;;41.40;5.93;;;;;;;;;;5050120;28;20045;-69
2023/01/30 07:27:07;;;;;;;31.17;7.07;;;;;;;;;;5048929;28;20053;-69
2023/01/30 07:29:34;;;;;;;41.33;6.43;;;;;;;;;;5050665;28;20044;-69
2023/01/30 07:32:01;;;;;;;36.28;5.85;;;;;;;;;;5049324;28;20400;-69
2023/01/30 07:34:27;;;;;;;38.75;6.00;;;;;;;;;;5049186;28;20508;-69
2023/01/30 07:36:53;;;;;;;34.33;5.95;;;;;;;;;;5043595;28;20410;-69
2023/01/30 07:39:19;;;;;;;27.83;5.03;;;;;;;;;;5046975;28;20392;-70
2023/01/30 07:41:45;;;;;;;34.55;5.93;;;;;;;;;;5048337;28;20173;-70
2023/01/30 07:44:12;;;;;;;34.30;6.13;;;;;;;;;;5047477;28;20049;-70
2023/01/30 07:46:38;;;;;;;41.22;6.43;;;;;;;;;;5047888;28;20175;-70
2023/01/30 07:49:05;;;;;;;39.75;6.15;;;;;;;;;;5044315;28;21330;-70
2023/01/30 07:51:31;;;;;;;34.85;6.40;;;;;;;;;;5051278;28;20465;-69
2023/01/30 07:53:58;;;;;;;32.00;5.93;;;;;;;;;;5046226;28;20045;-69
2023/01/30 07:56:24;;;;;;;40.30;6.22;;;;;;;;;;5050145;28;20566;-69
2023/01/30 07:58:50;;;;;;;42.00;6.72;;;;;;;;;;5051239;28;20414;-69
2023/01/30 08:01:17;;;;;;;35.28;5.80;;;;;;;;;;5049290;28;20048;-69
2023/01/30 08:03:45;;;;;;;42.55;6.68;;;;;;;;;;5052240;28;20041;-70
2023/01/30 08:06:12;;;;;;;36.47;6.65;;;;;;;;;;5050433;28;20460;-69
2023/01/30 08:08:39;;;;;;;37.63;5.25;;;;;;;;;;5051103;28;20052;-69
2023/01/30 08:11:05;;;;;;;37.92;6.90;;;;;;;;;;5050697;28;20116;-69
2023/01/30 08:13:31;;;;;;;35.80;7.40;;;;;;;;;;5048030;28;20440;-69
2023/01/30 08:15:59;;;;;;;29.02;6.35;;;;;;;;;;5051478;28;20037;-69
2023/01/30 08:18:25;;;;;;;35.22;5.35;;;;;;;;;;5049636;28;20052;-69
2023/01/30 08:20:51;;;;;;;35.13;6.30;;;;;;;;;;5045612;28;20132;-69
2023/01/30 08:23:18;;;;;;;47.75;7.60;;;;;;;;;;5048491;28;20043;-69
2023/01/30 08:25:44;;;;;;;44.58;7.18;;;;;;;;;;5048569;28;20472;-69
2023/01/30 08:28:10;;;;;;;34.25;7.43;;;;;;;;;;5048392;28;20587;-69
2023/01/30 08:30:36;;;;;;;32.17;6.18;;;;;;;;;;5048681;28;20381;-71
2023/01/30 08:33:02;;;;;;;42.47;6.85;;;;;;;;;;5048920;28;20045;-69
2023/01/30 08:35:29;;;;;;;42.40;6.10;;;;;;;;;;5044795;28;20037;-69
2023/01/30 08:37:55;;;;;;;43.20;6.95;;;;;;;;;;5049638;28;20416;-69
2023/01/30 08:40:21;;;;;;;41.60;7.15;;;;;;;;;;5048591;28;20041;-70
2023/01/30 08:42:47;;;;;;;34.13;5.60;;;;;;;;;;5047696;28;20056;-69
2023/01/30 08:45:13;;;;;;;45.00;7.78;;;;;;;;;;5047674;28;20358;-69
2023/01/30 08:47:39;;;;;;;37.47;6.68;;;;;;;;;;5049116;28;20401;-68
2023/01/30 08:50:06;;;;;;;33.90;5.72;;;;;;;;;;5048794;28;20086;-68
2023/01/30 08:52:33;;;;;;;30.15;6.10;;;;;;;;;;5049308;28;20489;-68
2023/01/30 08:54:59;;;;;;;35.42;6.63;;;;;;;;;;5049872;28;20761;-69
2023/01/30 08:57:25;;;;;;;42.47;6.68;;;;;;;;;;5049194;28;20156;-69
2023/01/30 08:59:51;;;;;;;36.22;5.55;;;;;;;;;;5049696;28;20174;-69
2023/01/30 09:02:17;;;;;;;37.38;7.07;;;;;;;;;;5049665;28;20446;-70
2023/01/30 09:04:44;;;;;;;42.30;7.93;;;;;;;;;;5046732;28;20566;-69
2023/01/30 09:07:10;;;;;;;45.60;5.80;;;;;;;;;;5049447;28;20654;-69
2023/01/30 09:09:36;;;;;;;47.80;7.45;;;;;;;;;;5048981;28;20036;-69
2023/01/30 09:12:02;;;;;;;38.15;7.10;;;;;;;;;;5047785;28;20044;-69
2023/01/30 09:14:28;;;;;;;39.47;6.57;;;;;;;;;;5050621;28;20047;-69
2023/01/30 09:16:54;;;;;;;48.97;7.72;;;;;;;;;;5051549;28;20489;-69
2023/01/30 09:19:24;;;;;;;37.05;7.65;;;;;;;;;;5045768;28;20037;-69
2023/01/30 09:21:51;;;;;;;47.03;7.43;;;;;;;;;;5050906;28;20128;-69
2023/01/30 09:24:17;;;;;;;35.90;6.40;;;;;;;;;;5049712;28;20049;-69
2023/01/30 09:26:44;;;;;;;40.22;6.43;;;;;;;;;;5050840;28;20098;-70
2023/01/30 09:29:11;;;;;;;43.33;7.88;;;;;;;;;;5050848;28;20443;-71
2023/01/30 09:31:37;;;;;;;39.63;6.97;;;;;;;;;;5047960;28;20045;-70
2023/01/30 09:34:03;;;;;;;37.47;5.85;;;;;;;;;;5044041;28;20044;-70
2023/01/30 09:36:29;;;;;;;52.80;8.23;;;;;;;;;;5048299;28;20416;-70
2023/01/30 09:38:56;;;;;;;32.22;5.38;;;;;;;;;;5047198;28;20526;-69
2023/01/30 09:41:43;;;;;;;30.85;6.38;;;;;;;;;;5132852;27;20133;-69
2023/01/30 09:44:18;;;;;;;30.48;5.85;;;;;;;;;;5096505;28;20047;-69
2023/01/30 09:46:50;;;;;;;35.47;5.93;;;;;;;;;;5114883;28;20113;-69
2023/01/30 09:49:28;;;;;;;42.47;6.28;;;;;;;;;;5094685;28;20445;-69
2023/01/30 09:52:00;;;;;;;44.17;6.20;;;;;;;;;;5115283;28;20071;-69
2023/01/30 09:54:29;;;;;;;43.80;6.63;;;;;;;;;;5114817;28;20055;-69
2023/01/30 09:56:57;;;;;;;37.60;6.13;;;;;;;;;;5098693;28;20047;-69
2023/01/30 09:59:27;;;;;;;37.78;7.05;;;;;;;;;;5115252;28;20040;-69
2023/01/30 10:02:12;;;;;;;39.17;7.22;;;;;;;;;;5114895;28;20036;-70
2023/01/30 10:04:43;;;;;;;44.17;6.85;;;;;;;;;;5112572;28;20063;-70
2023/01/30 10:07:10;;;;;;;35.53;6.43;;;;;;;;;;5112607;28;20039;-69
2023/01/30 10:09:58;;;;;;;47.08;6.95;;;;;;;;;;5111651;28;20082;-69
2023/01/30 10:12:30;;;;;;;31.70;5.22;;;;;;;;;;5110053;28;20126;-70
2023/01/30 10:15:00;;;;;;;45.83;7.13;;;;;;;;;;5110309;28;20035;-68
2023/01/30 10:17:42;;;;;;;42.38;8.25;;;;;;;;;;5115864;28;20075;-69
2023/01/30 10:20:12;;;;;;;42.15;6.88;;;;;;;;;;5112931;28;20131;-69
2023/01/30 10:22:47;;;;;;;12.10;2.05;;;;;;;;;;5118690;28;20047;-69
2023/01/30 10:25:13;;;;;;;6.22;2.20;;;;;;;;;;5098342;28;20067;-69
2023/01/30 10:27:42;;;;;;;12.07;2.75;;;;;;;;;;5092532;28;20039;-69
2023/01/30 10:30:13;;;;;;;19.98;2.63;;;;;;;;;;5113585;28;20054;-70
2023/01/30 10:32:42;;;;;;;28.60;3.78;;;;;;;;;;5111222;28;20036;-69
2023/01/30 10:35:15;;;;;;;31.33;4.63;;;;;;;;;;5114328;28;20127;-70
2023/01/30 10:37:45;;;;;;;34.08;6.22;;;;;;;;;;5098807;28;20124;-70
2023/01/30 10:40:21;;;;;;;36.85;6.55;;;;;;;;;;5113890;28;20134;-70
2023/01/30 10:42:54;;;;;;;33.88;5.13;;;;;;;;;;5098372;28;20058;-70
2023/01/30 10:45:26;;;;;;;31.48;4.13;;;;;;;;;;5111781;28;20044;-70
2023/01/30 10:47:52;;;;;;;23.48;3.72;;;;;;;;;;5097687;28;20388;-70
2023/01/30 10:50:20;;;;;;;19.40;3.47;;;;;;;;;;5099118;28;20395;-70
2023/01/30 10:52:51;;;;;;;17.50;2.83;;;;;;;;;;5100536;28;20044;-70
2023/01/30 10:55:29;;;;;;;20.13;2.80;;;;;;;;;;5101392;28;20058;-70
2023/01/30 10:58:10;;;;;;;20.05;3.80;;;;;;;;;;5095046;28;20098;-70
2023/01/30 11:00:46;;;;;;;19.65;2.63;;;;;;;;;;5098957;28;20040;-70
2023/01/30 11:03:17;;;;;;;22.98;4.13;;;;;;;;;;5098294;28;20437;-70
2023/01/30 11:05:56;;;;;;;23.67;3.42;;;;;;;;;;5097882;28;20043;-70
2023/01/30 11:08:23;;;;;;;23.60;4.05;;;;;;;;;;5076548;28;20131;-70
2023/01/30 11:10:50;;;;;;;27.85;4.07;;;;;;;;;;5096465;28;20035;-70
2023/01/30 11:13:18;;;;;;;26.92;5.05;;;;;;;;;;5101417;28;20062;-69
2023/01/30 11:15:46;;;;;;;42.78;5.72;;;;;;;;;;5098492;28;20033;-69
2023/01/30 11:18:12;;;;;;;21.30;4.35;;;;;;;;;;5097589;28;20055;-69
2023/01/30 11:20:40;;;;;;;8.55;1.90;;;;;;;;;;5080879;28;20127;-70
2023/01/30 11:23:09;;;;;;;13.43;2.45;;;;;;;;;;5102305;28;20047;-70
2023/01/30 11:25:48;;;;;;;21.70;3.53;;;;;;;;;;5083710;28;20069;-70
2023/01/30 11:28:18;;;;;;;21.73;4.00;;;;;;;;;;5092103;28;20060;-70
2023/01/30 11:30:48;;;;;;;15.45;3.08;;;;;;;;;;5077837;28;20051;-69
2023/01/30 11:33:16;;;;;;;20.92;3.25;;;;;;;;;;5092758;28;20040;-69
2023/01/30 11:35:53;;;;;;;17.42;2.83;;;;;;;;;;5096103;28;20072;-69
2023/01/30 11:38:22;;;;;;;22.83;3.08;;;;;;;;;;5091331;28;20063;-70
2023/01/30 11:40:48;;;;;;;22.20;4.07;;;;;;;;;;5098362;28;20047;-70
2023/01/30 11:43:15;;;;;;;19.35;3.38;;;;;;;;;;5099425;28;20150;-70
2023/01/30 11:45:44;;;;;;;18.85;3.42;;;;;;;;;;5098413;28;20039;-70
2023/01/30 11:48:19;;;;;;;19.02;3.50;;;;;;;;;;5100394;28;20463;-70
2023/01/30 11:50:47;;;;;;;24.33;3.35;;;;;;;;;;5100282;28;20115;-70
2023/01/30 11:53:29;;;;;;;13.40;2.92;;;;;;;;;;5099302;28;20546;-69
2023/01/30 11:55:58;;;;;;;23.23;5.20;;;;;;;;;;5098484;28;20040;-69
2023/01/30 11:58:28;;;;;;;19.88;4.30;;;;;;;;;;5096089;28;20047;-69
2023/01/30 12:00:54;;;;;;;25.83;4.18;;;;;;;;;;5094572;28;20043;-71
2023/01/30 12:03:24;;;;;;;26.77;4.70;;;;;;;;;;5080658;28;20432;-71
2023/01/30 12:05:51;;;;;;;27.15;4.85;;;;;;;;;;5098359;28;20931;-70
2023/01/30 12:08:20;;;;;;;26.33;4.90;;;;;;;;;;5081804;28;20138;-70
2023/01/30 12:10:47;;;;;;;21.33;4.70;;;;;;;;;;5082241;28;20093;-70
2023/01/30 12:13:18;;;;;;;19.73;4.55;;;;;;;;;;5099563;28;20079;-69
2023/01/30 12:15:47;;;;;;;30.67;4.88;;;;;;;;;;5084339;28;20042;-70
2023/01/30 12:18:17;;;;;;;25.92;4.28;;;;;;;;;;5100426;28;20052;-70
2023/01/30 12:20:54;;;;;;;22.23;3.97;;;;;;;;;;5097119;28;20044;-69
2023/01/30 12:23:25;;;;;;;20.73;3.63;;;;;;;;;;5082456;28;20059;-70
2023/01/30 12:26:02;;;;;;;22.92;3.58;;;;;;;;;;5099115;28;20403;-70
2023/01/30 12:28:38;;;;;;;27.92;4.45;;;;;;;;;;5075981;28;20056;-70
2023/01/30 12:31:07;;;;;;;29.38;5.10;;;;;;;;;;5073926;28;20118;-70
2023/01/30 12:33:34;;;;;;;22.13;3.88;;;;;;;;;;5081721;28;20058;-67
2023/01/30 12:36:08;;;;;;;24.58;4.47;;;;;;;;;;5100976;28;20062;-68
2023/01/30 12:38:35;;;;;;;29.00;5.38;;;;;;;;;;5097841;28;20051;-68
2023/01/30 12:41:16;;;;;;;32.30;4.50;;;;;;;;;;5096166;28;20369;-67
2023/01/30 12:43:47;;;;;;;31.60;5.60;;;;;;;;;;5097415;28;20127;-69
2023/01/30 12:46:21;;;;;;;26.25;5.47;;;;;;;;;;5078391;28;20126;-69
2023/01/30 12:48:56;;;;;;;36.67;5.03;;;;;;;;;;5093345;28;20055;-69
2023/01/30 12:51:23;;;;;;;34.75;5.03;;;;;;;;;;5076866;28;20100;-68
2023/01/30 12:53:53;;;;;;;32.97;6.75;;;;;;;;;;5068717;28;20035;-68
2023/01/30 12:56:38;;;;;;;30.17;5.93;;;;;;;;;;5096455;28;20051;-69
2023/01/30 12:59:04;;;;;;;33.22;5.95;;;;;;;;;;5092785;28;20040;-69
2023/01/30 13:01:34;;;;;;;35.75;6.22;;;;;;;;;;5093510;28;20055;-69
2023/01/30 13:04:06;;;;;;;33.25;7.00;;;;;;;;;;5084386;28;20040;-69
2023/01/30 13:06:45;;;;;;;36.75;7.40;;;;;;;;;;5093949;28;20066;-69
2023/01/30 13:09:17;;;;;;;41.55;7.95;;;;;;;;;;5095312;28;20067;-69
2023/01/30 13:11:50;;;;;;;37.20;7.25;;;;;;;;;;5093460;28;20051;-69
2023/01/30 13:14:21;;;;;;;30.52;6.18;;;;;;;;;;5088620;28;20379;-69
2023/01/30 13:16:50;;;;;;;40.60;7.18;;;;;;;;;;5092979;28;20451;-69
2023/01/30 13:19:17;;;;;;;33.40;6.22;;;;;;;;;;5097061;28;20046;-69
2023/01/30 13:21:44;;;;;;;36.72;7.68;;;;;;;;;;5074221;28;20040;-70
2023/01/30 13:24:18;;;;;;;43.38;7.93;;;;;;;;;;5085282;28;20043;-69
2023/01/30 13:26:44;;;;;;;39.63;7.78;;;;;;;;;;5081262;28;20040;-68
2023/01/30 13:29:15;;;;;;;39.67;7.57;;;;;;;;;;5064898;28;20447;-68
2023/01/30 13:31:49;;;;;;;40.22;8.73;;;;;;;;;;5107862;28;20056;-68
2023/01/30 13:34:21;;;;;;;35.80;7.82;;;;;;;;;;5106712;28;20038;-68
2023/01/30 13:36:51;;;;;;;50.30;7.40;;;;;;;;;;5108145;28;20039;-68
2023/01/30 13:39:23;;;;;;;39.63;7.05;;;;;;;;;;5075735;28;20503;-68
2023/01/30 13:41:55;;;;;;;40.53;8.15;;;;;;;;;;5078219;28;20101;-68
2023/01/30 13:44:22;;;;;;;42.28;8.55;;;;;;;;;;5091536;28;20388;-68
2023/01/30 13:46:50;;;;;;;45.03;7.22;;;;;;;;;;5074112;28;20063;-68
2023/01/30 13:49:36;;;;;;;39.40;7.53;;;;;;;;;;5102643;28;20064;-79
2023/01/30 13:52:08;;;;;;;35.72;8.70;;;;;;;;;;5103191;28;20127;-69
2023/01/30 13:54:51;;;;;;;30.92;6.75;;;;;;;;;;5107395;28;20118;-69
2023/01/30 13:57:17;;;;;;;30.50;7.22;;;;;;;;;;5099704;28;20059;-70
2023/01/30 13:59:52;;;;;;;36.15;6.90;;;;;;;;;;5091200;28;20063;-69
2023/01/30 14:02:20;;;;;;;44.97;7.75;;;;;;;;;;5110040;28;20046;-69
2023/01/30 14:04:47;;;;;;;43.92;7.53;;;;;;;;;;5091280;28;20048;-69
2023/01/30 14:07:15;;;;;;;38.45;7.15;;;;;;;;;;5087295;28;20225;-69
2023/01/30 14:09:42;;;;;;;35.60;6.32;;;;;;;;;;5076645;28;20403;-69
2023/01/30 14:12:17;;;;;;;41.50;7.75;;;;;;;;;;5095115;28;20107;-71
2023/01/30 14:14:56;;;;;;;43.50;8.38;;;;;;;;;;5100086;28;20082;-69
2023/01/30 14:17:22;;;;;;;34.35;7.15;;;;;;;;;;5091611;28;20518;-69
2023/01/30 14:19:54;;;;;;;33.60;7.07;;;;;;;;;;5091523;28;20036;-69
2023/01/30 14:22:22;;;;;;;38.05;6.95;;;;;;;;;;5074830;28;20682;-69
2023/01/30 14:25:19;;;;;;;43.38;7.97;;;;;;;;;;5066272;28;21795;-69
2023/01/30 14:27:45;;;;;;;37.60;7.82;;;;;;;;;;5095521;28;20093;-69
2023/01/30 14:30:30;;;;;;;46.40;8.10;;;;;;;;;;5097904;28;20040;-69
2023/01/30 14:32:57;;;;;;;48.88;7.72;;;;;;;;;;5096748;28;20043;-68
2023/01/30 14:35:25;;;;;;;38.67;7.60;;;;;;;;;;5099303;28;20058;-69
2023/01/30 14:38:04;;;;;;;41.05;7.00;;;;;;;;;;5101096;28;20044;-69
2023/01/30 14:40:32;;;;;;;38.83;7.43;;;;;;;;;;5100984;28;20056;-69
2023/01/30 14:43:13;;;;;;;35.42;6.53;;;;;;;;;;5078432;28;21260;-81
2023/01/30 14:45:48;;;;;;;42.55;7.88;;;;;;;;;;5079997;28;20047;-68
2023/01/30 14:48:27;;;;;;;46.58;6.90;;;;;;;;;;5100418;28;20128;-68